Time;durP1;ratioP1;P1;durP2;ratioP2;P2;SDS_P1;SDS_P2;PMS_P1;PMS_P2;Temp;Humidity;BMP_temperature;BMP_pressure;BME280_temperature;BME280_humidity;BME280_pressure;Samples;Min_cycle;Max_cycle;Signal;HPM_P1;HPM_P2
2023/03/22 00:00:14;;;;;;;8.27;6.78;;;;;;;10.62;100.00;97968.00;5007422;28;20093;-87
2023/03/22 00:02:40;;;;;;;10.02;7.10;;;;;;;10.63;100.00;97967.00;4991646;28;20093;-87
2023/03/22 00:05:07;;;;;;;11.70;7.70;;;;;;;10.56;100.00;97960.94;5024956;28;20385;-88
2023/03/22 00:07:33;;;;;;;9.60;7.88;;;;;;;10.60;100.00;97967.38;4992988;28;20097;-88
2023/03/22 00:10:00;;;;;;;12.68;8.35;;;;;;;10.60;100.00;97969.22;4991635;28;20050;-88
2023/03/22 00:12:26;;;;;;;12.65;8.40;;;;;;;10.47;100.00;97967.41;4991710;28;20057;-87
2023/03/22 00:14:53;;;;;;;11.50;8.05;;;;;;;10.68;100.00;97977.69;4993294;28;20054;-87
2023/03/22 00:17:21;;;;;;;10.82;7.78;;;;;;;10.68;100.00;97961.94;5019130;28;20038;-88
2023/03/22 00:19:48;;;;;;;10.45;8.38;;;;;;;10.77;100.00;97959.09;4996554;28;20050;-88
2023/03/22 00:22:15;;;;;;;10.95;7.97;;;;;;;10.82;100.00;97940.94;4994751;28;20034;-87
2023/03/22 00:24:41;;;;;;;10.68;8.13;;;;;;;10.90;100.00;97959.09;4996007;28;20030;-88
2023/03/22 00:27:07;;;;;;;10.90;7.47;;;;;;;10.87;100.00;97954.25;4996255;28;20030;-88
2023/03/22 00:29:33;;;;;;;11.40;7.32;;;;;;;10.86;100.00;97948.22;4996487;28;20038;-87
2023/03/22 00:32:00;;;;;;;8.38;6.97;;;;;;;10.80;100.00;97938.53;5011207;28;20081;-88
2023/03/22 00:34:31;;;;;;;10.63;7.70;;;;;;;10.80;100.00;97963.97;4994351;28;20042;-87
2023/03/22 00:36:57;;;;;;;11.75;8.50;;;;;;;10.69;100.00;97953.06;4996405;28;20034;-87
2023/03/22 00:39:23;;;;;;;14.65;9.07;;;;;;;10.63;100.00;97947.84;4996124;28;20552;-87
2023/03/22 00:41:50;;;;;;;15.50;9.27;;;;;;;10.48;100.00;97918.38;5012528;28;20096;-88
2023/03/22 00:44:16;;;;;;;12.57;8.73;;;;;;;10.60;100.00;97938.53;4995976;28;20046;-88
2023/03/22 00:46:42;;;;;;;13.35;8.75;;;;;;;10.50;100.00;97938.16;4994762;28;20054;-88
2023/03/22 00:49:09;;;;;;;13.15;9.35;;;;;;;10.45;100.00;97933.50;4994510;28;20411;-88
2023/03/22 00:51:35;;;;;;;12.73;8.85;;;;;;;10.32;100.00;97919.63;4994240;28;20062;-88
2023/03/22 00:54:01;;;;;;;12.60;8.85;;;;;;;10.45;100.00;97937.97;4996911;28;20030;-88
2023/03/22 00:56:27;;;;;;;13.00;8.93;;;;;;;10.30;100.00;97925.03;4998888;28;20030;-87
2023/03/22 00:58:54;;;;;;;13.98;9.05;;;;;;;10.30;100.00;97934.72;5016099;28;20061;-88
2023/03/22 01:01:20;;;;;;;13.50;8.98;;;;;;;10.34;100.00;97942.00;5015377;28;20068;-87
2023/03/22 01:03:49;;;;;;;11.00;7.75;;;;;;;10.33;100.00;97922.03;4995269;28;20053;-88
2023/03/22 01:06:15;;;;;;;9.85;7.63;;;;;;;10.41;100.00;97944.59;4994942;28;20046;-88
2023/03/22 01:08:42;;;;;;;11.50;7.65;;;;;;;10.34;100.00;97926.25;4993833;28;20051;-88
2023/03/22 01:11:08;;;;;;;10.77;7.53;;;;;;;10.33;100.00;97922.03;5010474;28;20054;-88
2023/03/22 01:13:36;;;;;;;11.52;8.18;;;;;;;10.31;100.00;97929.28;5027497;28;20053;-88
2023/03/22 01:16:06;;;;;;;11.07;8.18;;;;;;;10.06;100.00;97899.41;4996378;28;20540;-88
2023/03/22 01:18:33;;;;;;;14.57;8.88;;;;;;;10.18;100.00;97924.81;4995234;28;20262;-88
2023/03/22 01:21:00;;;;;;;11.23;8.30;;;;;;;10.13;100.00;97921.16;4983582;28;20035;-88
2023/03/22 01:23:26;;;;;;;11.35;8.15;;;;;;;9.86;100.00;97910.66;4994345;28;20478;-88
2023/03/22 01:25:53;;;;;;;11.45;8.43;;;;;;;9.90;100.00;97911.91;4980550;28;20065;-87
2023/03/22 01:28:19;;;;;;;14.05;8.85;;;;;;;9.72;100.00;97885.47;4993886;28;20796;-87
2023/03/22 01:30:45;;;;;;;12.10;8.15;;;;;;;9.72;100.00;97874.19;4994625;28;20435;-87
2023/03/22 01:33:11;;;;;;;13.07;8.68;;;;;;;9.69;100.00;97892.91;4994263;28;20041;-88
2023/03/22 01:35:38;;;;;;;12.27;8.50;;;;;;;9.75;100.00;97892.91;4995602;28;20474;-88
2023/03/22 01:38:05;;;;;;;12.85;8.48;;;;;;;9.60;100.00;97885.25;4993116;28;20545;-87
2023/03/22 01:40:33;;;;;;;11.45;8.77;;;;;;;9.75;100.00;97903.41;4976027;28;20043;-87
2023/03/22 01:42:59;;;;;;;13.55;9.30;;;;;;;9.63;100.00;97892.69;5025756;28;20031;-87
2023/03/22 01:45:37;;;;;;;12.65;8.70;;;;;;;9.84;100.00;97915.31;4995641;28;20038;-87
2023/03/22 01:48:29;;;;;;;11.80;8.43;;;;;;;9.83;100.00;97894.53;4994661;28;20049;-87
2023/03/22 01:51:21;;;;;;;11.25;7.97;;;;;;;9.89;100.00;97884.06;4991825;28;20078;-88
2023/03/22 01:54:03;;;;;;;;;;;;;;;10.02;100.00;97899.00;4978246;28;20042;-88
2023/03/22 01:56:36;;;;;;;11.50;8.18;;;;;;;9.95;100.00;97898.16;5010008;28;19997;-87
2023/03/22 01:59:04;;;;;;;11.43;8.60;;;;;;;9.82;100.00;97878.00;4993550;28;20367;-88
2023/03/22 02:01:33;;;;;;;13.48;9.23;;;;;;;9.74;100.00;97875.59;4994275;28;20034;-87
2023/03/22 02:04:14;;;;;;;12.57;9.20;;;;;;;9.87;100.00;97896.56;5006828;28;20047;-88
2023/03/22 02:06:41;;;;;;;;;;;;;;;9.83;100.00;97895.34;5006463;28;20061;-88
2023/03/22 02:09:11;;;;;;;16.63;8.80;;;;;;;9.73;100.00;97879.22;4993533;28;19910;-88
2023/03/22 02:12:04;;;;;;;13.93;10.25;;;;;;;9.78;100.00;97892.53;4993558;28;20683;-87
2023/03/22 02:14:55;;;;;;;13.48;9.32;;;;;;;9.75;100.00;97884.25;5009549;28;20042;-87
2023/03/22 02:18:10;;;;;;;12.57;8.90;;;;;;;9.68;100.00;97889.47;4992815;28;20528;-88
2023/03/22 02:21:17;;;;;;;14.45;9.07;;;;;;;9.53;100.00;97862.66;5026309;28;20469;-88
2023/03/22 02:24:34;;;;;;;13.48;8.82;;;;;;;9.59;100.00;97882.81;4994876;28;20126;-88
2023/03/22 02:27:31;;;;;;;13.77;9.52;;;;;;;9.56;100.00;97884.03;5006592;28;20486;-88
2023/03/22 02:30:39;;;;;;;14.52;9.57;;;;;;;9.51;100.00;97883.81;4978522;28;20038;-87
2023/03/22 02:33:37;;;;;;;14.02;9.98;;;;;;;9.46;100.00;97872.31;5012748;28;20501;-87
2023/03/22 02:36:41;;;;;;;14.90;8.90;;;;;;;9.58;100.00;97876.75;4992531;28;20506;-87
2023/03/22 02:39:49;;;;;;;14.65;9.07;;;;;;;9.57;100.00;97863.88;5008207;28;20054;-87
2023/03/22 02:42:46;;;;;;;15.13;9.52;;;;;;;9.53;100.00;97862.66;4971332;28;20051;-88
2023/03/22 02:45:15;;;;;;;11.85;9.38;;;;;;;9.60;100.00;97866.13;4994583;28;20042;-88
2023/03/22 02:47:57;;;;;;;13.60;9.23;;;;;;;9.63;100.00;97873.56;4993745;28;20030;-88
2023/03/22 02:50:41;;;;;;;14.15;9.05;;;;;;;9.55;100.00;97860.66;5002269;28;20042;-88
2023/03/22 02:53:40;;;;;;;14.02;9.40;;;;;;;9.47;100.00;97855.59;4994237;28;20053;-88
2023/03/22 02:56:29;;;;;;;12.63;8.85;;;;;;;9.38;100.00;97845.31;4993455;28;20036;-87
2023/03/22 02:59:00;;;;;;;;;;;;;;;9.49;100.00;97867.50;4984223;28;20060;-88
2023/03/22 03:01:35;;;;;;;13.73;8.98;;;;;;;9.41;100.00;97878.13;5007909;28;19910;-88
2023/03/22 03:04:09;;;;;;;12.90;9.35;;;;;;;9.45;100.00;97866.25;4991298;28;20058;-88
2023/03/22 03:06:46;;;;;;;15.85;9.45;;;;;;;9.35;100.00;97860.59;5004161;28;20070;-88
2023/03/22 03:09:17;;;;;;;14.63;10.25;;;;;;;9.28;100.00;97865.81;5006987;28;20038;-88
2023/03/22 03:11:51;;;;;;;13.60;8.63;;;;;;;9.25;100.00;97847.91;4989338;28;20085;-88
2023/03/22 03:14:29;;;;;;;16.52;9.80;;;;;;;9.35;100.00;97861.41;4991993;28;20100;-88
2023/03/22 03:17:28;;;;;;;13.50;9.73;;;;;;;9.31;100.00;97864.63;5001156;28;20057;-88
2023/03/22 03:20:28;;;;;;;15.13;8.90;;;;;;;9.11;100.00;97838.38;4990607;28;20050;-88
2023/03/22 03:23:18;;;;;;;15.07;9.33;;;;;;;9.24;100.00;97858.56;4991196;28;20049;-87
2023/03/22 03:25:50;;;;;;;11.65;9.38;;;;;;;9.07;100.00;97851.06;4990658;28;20027;-88
2023/03/22 03:29:00;;;;;;;13.85;8.82;;;;;;;9.08;100.00;97849.25;5013581;28;20105;-88
2023/03/22 03:31:46;;;;;;;12.77;9.18;;;;;;;9.13;100.00;97861.75;4988594;28;20471;-88
2023/03/22 03:34:28;;;;;;;13.73;9.10;;;;;;;9.02;100.00;97855.25;4992531;28;20042;-87
2023/03/22 03:37:07;;;;;;;13.38;9.15;;;;;;;9.00;100.00;97857.28;5024064;28;20034;-87
2023/03/22 03:39:43;;;;;;;15.30;9.80;;;;;;;9.10;100.00;97857.69;5004273;28;20105;-88
2023/03/22 03:42:15;;;;;;;13.65;9.50;;;;;;;9.02;100.00;97871.75;4971972;28;20050;-88
2023/03/22 03:44:42;;;;;;;14.48;9.35;;;;;;;8.98;100.00;97867.09;4985730;28;20042;-87
2023/03/22 03:47:10;;;;;;;12.95;9.15;;;;;;;8.93;100.00;97864.25;4987358;28;20050;-88
2023/03/22 03:49:37;;;;;;;13.18;9.05;;;;;;;8.97;100.00;97860.25;5002305;28;20066;-87
2023/03/22 03:52:04;;;;;;;12.50;9.25;;;;;;;9.17;100.00;97874.22;4969741;28;20082;-88
2023/03/22 03:54:31;;;;;;;13.73;9.15;;;;;;;9.13;100.00;97878.25;4993956;28;20490;-87
2023/03/22 03:56:57;;;;;;;12.57;9.35;;;;;;;9.29;100.00;97893.59;4990397;28;20034;-88
2023/03/22 03:59:24;;;;;;;12.15;8.82;;;;;;;9.24;100.00;97864.63;4991807;28;20038;-87
2023/03/22 04:01:50;;;;;;;11.90;8.48;;;;;;;9.30;100.00;97858.59;4991060;28;20041;-88
2023/03/22 04:04:26;;;;;;;12.18;8.35;;;;;;;9.36;100.00;97870.09;4975807;28;20042;-87
2023/03/22 04:06:55;;;;;;;14.00;8.52;;;;;;;9.44;100.00;97869.09;4993147;28;20832;-88
2023/03/22 04:09:26;;;;;;;15.57;9.18;;;;;;;9.33;100.00;97860.00;4992762;28;20038;-88
2023/03/22 04:11:54;;;;;;;12.27;8.37;;;;;;;9.29;100.00;97856.94;5004292;28;20047;-88
2023/03/22 04:14:21;;;;;;;12.93;8.95;;;;;;;9.44;100.00;97872.50;4980443;28;20046;-87
2023/03/22 04:16:48;;;;;;;12.07;8.02;;;;;;;9.35;100.00;97863.22;4991785;28;20046;-87
2023/03/22 04:19:15;;;;;;;11.27;8.13;;;;;;;9.43;100.00;97877.94;4991954;28;20073;-88
2023/03/22 04:21:41;;;;;;;9.77;7.95;;;;;;;9.37;100.00;97875.13;4992276;28;20030;-88
2023/03/22 04:24:09;;;;;;;13.75;7.93;;;;;;;9.43;100.00;97878.75;5008263;28;20046;-88
2023/03/22 04:26:35;;;;;;;14.02;8.02;;;;;;;9.31;100.00;97872.47;5009086;28;20043;-87
2023/03/22 04:29:01;;;;;;;10.35;8.07;;;;;;;9.26;100.00;97867.81;5000953;28;20046;-88
2023/03/22 04:31:32;;;;;;;11.63;8.05;;;;;;;9.17;100.00;97861.13;5008110;28;20057;-88
2023/03/22 04:34:04;;;;;;;12.25;8.80;;;;;;;9.14;100.00;97869.41;4991798;28;20042;-88
2023/03/22 04:36:35;;;;;;;11.10;8.77;;;;;;;9.20;100.00;97873.03;5005324;28;20073;-88
2023/03/22 04:39:07;;;;;;;12.50;9.18;;;;;;;9.15;100.00;97871.00;5007750;28;20046;-88
2023/03/22 04:41:34;;;;;;;10.25;7.78;;;;;;;9.05;100.00;97854.84;4992833;28;20088;-88
2023/03/22 04:44:04;;;;;;;12.13;8.05;;;;;;;9.05;100.00;97867.94;4993149;28;20493;-88
2023/03/22 04:46:33;;;;;;;12.15;8.27;;;;;;;9.05;100.00;97873.16;4991409;28;20034;-88
2023/03/22 04:48:59;;;;;;;12.57;8.38;;;;;;;8.88;100.00;97851.00;4991593;28;20042;-88
2023/03/22 04:51:27;;;;;;;10.93;8.20;;;;;;;8.87;100.00;97867.66;4990999;28;20042;-87
2023/03/22 04:53:53;;;;;;;13.88;9.05;;;;;;;8.95;100.00;97872.75;4992432;28;20034;-87
2023/03/22 04:56:20;;;;;;;10.70;8.70;;;;;;;8.80;100.00;97851.94;4993745;28;20482;-88
2023/03/22 04:58:47;;;;;;;10.68;8.27;;;;;;;8.87;100.00;97888.56;5000632;28;20050;-88
2023/03/22 05:01:16;;;;;;;11.35;8.05;;;;;;;8.84;100.00;97871.47;5009671;28;20159;-87
2023/03/22 05:03:47;;;;;;;11.57;7.93;;;;;;;8.66;100.00;97845.84;5007943;28;20047;-88
2023/03/22 05:06:14;;;;;;;12.13;8.07;;;;;;;8.78;100.00;97877.47;4994655;28;20054;-87
2023/03/22 05:08:40;;;;;;;11.50;8.25;;;;;;;8.57;100.00;97862.66;4994644;28;20650;-88
2023/03/22 05:11:15;;;;;;;11.50;7.95;;;;;;;8.63;100.00;97861.09;4994939;28;20049;-88
2023/03/22 05:13:42;;;;;;;12.00;8.00;;;;;;;8.57;100.00;97866.09;4995565;28;20049;-88
2023/03/22 05:16:09;;;;;;;11.10;7.53;;;;;;;8.68;100.00;97869.16;4996274;28;20041;-88
2023/03/22 05:18:41;;;;;;;12.52;8.07;;;;;;;8.52;100.00;97859.84;4977659;28;20422;-88
2023/03/22 05:21:16;;;;;;;10.60;7.75;;;;;;;8.66;100.00;97860.72;4994325;28;20046;-88
2023/03/22 05:23:44;;;;;;;10.35;8.32;;;;;;;8.58;100.00;97859.09;4993993;28;20042;-88
2023/03/22 05:26:14;;;;;;;12.52;8.27;;;;;;;8.60;100.00;97851.84;4994913;28;20398;-87
2023/03/22 05:28:42;;;;;;;10.30;8.13;;;;;;;8.60;100.00;97854.47;4995185;28;20034;-88
2023/03/22 05:31:10;;;;;;;10.75;8.10;;;;;;;8.58;100.00;97853.84;4995649;28;20034;-88
2023/03/22 05:33:36;;;;;;;12.27;8.18;;;;;;;8.66;100.00;97860.72;4995512;28;20062;-88
2023/03/22 05:36:03;;;;;;;11.63;8.02;;;;;;;8.66;100.00;97856.31;4993762;28;20052;-87
2023/03/22 05:38:29;;;;;;;12.80;8.80;;;;;;;8.56;100.00;97850.59;4993638;28;20031;-88
2023/03/22 05:40:55;;;;;;;10.30;7.90;;;;;;;8.60;100.00;97856.25;4989554;28;20069;-87
2023/03/22 05:43:21;;;;;;;9.93;8.30;;;;;;;8.66;100.00;97845.84;4974734;28;20482;-87
2023/03/22 05:45:48;;;;;;;10.55;7.82;;;;;;;8.67;100.00;97842.22;4991006;28;20073;-87
2023/03/22 05:48:14;;;;;;;13.68;8.20;;;;;;;8.64;100.00;97842.63;4990761;28;20051;-88
2023/03/22 05:50:41;;;;;;;12.25;7.82;;;;;;;8.63;100.00;97835.75;4993219;28;20041;-87
2023/03/22 05:53:16;;;;;;;10.80;8.07;;;;;;;8.67;100.00;97842.22;5023739;28;20520;-87
2023/03/22 05:55:43;;;;;;;14.30;8.35;;;;;;;8.61;100.00;97827.31;5026560;28;20057;-87
2023/03/22 05:58:09;;;;;;;12.68;8.27;;;;;;;8.83;100.00;97844.53;4994606;28;20034;-87
2023/03/22 06:00:36;;;;;;;11.18;8.15;;;;;;;8.74;100.00;97829.97;4993062;28;20106;-88
2023/03/22 06:03:04;;;;;;;12.27;7.95;;;;;;;8.78;100.00;97820.75;5009585;28;20046;-87
2023/03/22 06:05:31;;;;;;;11.40;7.80;;;;;;;8.79;100.00;97835.44;5009131;28;20681;-88
2023/03/22 06:07:59;;;;;;;9.45;7.47;;;;;;;8.85;100.00;97826.81;4993359;28;20453;-87
2023/03/22 06:10:27;;;;;;;12.27;8.07;;;;;;;8.99;100.00;97845.97;4993150;28;20066;-87
2023/03/22 06:12:54;;;;;;;10.40;8.48;;;;;;;9.11;100.00;97838.38;4994908;28;20069;-88
2023/03/22 06:15:20;;;;;;;12.85;7.95;;;;;;;9.03;100.00;97835.94;4994656;28;20034;-87
2023/03/22 06:17:47;;;;;;;11.02;8.13;;;;;;;9.19;100.00;97846.06;4993683;28;20054;-88
2023/03/22 06:20:14;;;;;;;12.13;8.13;;;;;;;9.15;100.00;97844.03;4992708;28;20046;-87
2023/03/22 06:22:41;;;;;;;11.18;8.23;;;;;;;9.05;100.00;97815.63;4994083;28;20053;-88
2023/03/22 06:25:09;;;;;;;11.93;8.68;;;;;;;9.14;100.00;97819.69;5029505;28;20068;-87
2023/03/22 06:27:36;;;;;;;11.77;9.10;;;;;;;9.20;100.00;97828.56;5032527;28;20053;-87
2023/03/22 06:30:03;;;;;;;13.20;8.82;;;;;;;9.27;100.00;97843.25;4992456;28;20513;-88
2023/03/22 06:32:29;;;;;;;12.55;7.90;;;;;;;9.24;100.00;97840.25;4994032;28;20524;-88
2023/03/22 06:34:55;;;;;;;10.40;7.97;;;;;;;9.24;100.00;97824.56;4994156;28;20054;-90
2023/03/22 06:37:23;;;;;;;11.05;8.30;;;;;;;9.28;100.00;97821.31;5025974;28;20041;-89
2023/03/22 06:39:50;;;;;;;14.52;8.57;;;;;;;9.38;100.00;97844.50;4977074;28;20509;-91
2023/03/22 06:42:16;;;;;;;11.60;8.85;;;;;;;9.46;100.00;97846.13;5027608;28;20076;-89
2023/03/22 06:44:43;;;;;;;12.70;8.77;;;;;;;9.59;100.00;97849.56;4993088;28;20050;-89
2023/03/22 06:47:10;;;;;;;12.00;7.80;;;;;;;9.52;100.00;97821.78;4994580;28;20093;-89
2023/03/22 06:49:39;;;;;;;11.05;8.02;;;;;;;9.68;100.00;97844.97;4994050;28;20069;-89
2023/03/22 06:52:05;;;;;;;10.90;8.40;;;;;;;9.70;100.00;97837.72;4993524;28;20042;-88
2023/03/22 06:54:31;;;;;;;12.13;8.55;;;;;;;9.63;100.00;97816.75;4993647;28;20038;-87
2023/03/22 06:56:58;;;;;;;10.00;8.45;;;;;;;9.71;100.00;97828.84;4994133;28;20030;-88
2023/03/22 06:59:24;;;;;;;10.02;8.38;;;;;;;9.68;100.00;97813.53;5008725;28;20042;-89
2023/03/22 07:01:50;;;;;;;10.52;8.60;;;;;;;9.88;100.00;97830.06;4992479;28;20042;-88
2023/03/22 07:04:17;;;;;;;13.02;8.65;;;;;;;10.00;100.00;97853.03;4981301;28;20050;-88
2023/03/22 07:06:43;;;;;;;12.95;8.25;;;;;;;10.08;100.00;97834.50;5001591;28;20606;-89
2023/03/22 07:09:09;;;;;;;14.45;8.90;;;;;;;10.09;100.00;97843.97;4981924;28;20461;-88
2023/03/22 07:11:35;;;;;;;12.77;8.45;;;;;;;10.09;100.00;97843.97;4991630;28;20489;-89
2023/03/22 07:14:02;;;;;;;11.40;7.95;;;;;;;10.21;100.00;97829.25;4990673;28;20065;-87
2023/03/22 07:16:28;;;;;;;11.25;8.68;;;;;;;10.41;100.00;97850.22;4986637;28;20062;-88
2023/03/22 07:18:55;;;;;;;13.82;8.40;;;;;;;10.52;100.00;97846.19;4991584;28;20042;-88
2023/03/22 07:21:21;;;;;;;10.02;7.95;;;;;;;10.64;100.00;97844.53;4991074;28;20030;-87
2023/03/22 07:23:47;;;;;;;10.98;9.00;;;;;;;10.81;100.00;97861.44;4991406;28;20481;-86
2023/03/22 07:26:13;;;;;;;13.10;9.00;;;;;;;10.74;100.00;97823.94;5012303;28;20042;-87
2023/03/22 07:28:43;;;;;;;11.95;8.68;;;;;;;10.96;100.00;97842.81;5007754;28;20039;-86
2023/03/22 07:31:11;;;;;;;10.00;8.35;;;;;;;11.06;100.00;97848.44;4992008;28;20031;-87
2023/03/22 07:33:39;;;;;;;14.80;8.50;;;;;;;11.34;100.00;97858.59;5023766;28;20069;-87
2023/03/22 07:36:07;;;;;;;10.57;7.68;;;;;;;11.26;100.00;97851.75;4992370;28;20414;-88
2023/03/22 07:38:35;;;;;;;13.50;8.07;;;;;;;11.38;100.00;97857.16;5006733;28;20043;-87
2023/03/22 07:41:01;;;;;;;9.18;7.90;;;;;;;11.41;100.00;97846.25;4991761;28;20046;-88
2023/03/22 07:43:28;;;;;;;11.55;8.13;;;;;;;11.60;100.00;97860.25;5023063;28;20190;-88
2023/03/22 07:46:10;;;;;;;9.38;8.02;;;;;;;11.48;99.72;97840.94;4992306;28;20042;-88
2023/03/22 07:48:37;;;;;;;13.15;8.52;;;;;;;11.59;99.80;97844.72;4990888;28;20054;-87
2023/03/22 07:51:04;;;;;;;11.98;9.05;;;;;;;11.50;97.63;97844.97;5021459;28;20038;-88
2023/03/22 07:53:31;;;;;;;10.55;8.50;;;;;;;11.62;99.98;97852.16;5006963;28;20097;-89
2023/03/22 07:55:57;;;;;;;10.40;7.93;;;;;;;11.84;100.00;97853.47;5025388;28;20047;-87
2023/03/22 07:58:23;;;;;;;13.77;8.45;;;;;;;11.81;99.47;97840.75;4991580;28;20105;-88
2023/03/22 08:00:49;;;;;;;9.52;7.80;;;;;;;11.91;98.59;97843.72;4991356;28;20042;-87
2023/03/22 08:03:16;;;;;;;9.40;7.90;;;;;;;12.11;98.03;97855.88;5006665;28;20055;-87
2023/03/22 08:05:42;;;;;;;10.35;8.30;;;;;;;12.21;99.04;97856.22;4993310;28;20035;-89
2023/03/22 08:08:09;;;;;;;10.40;8.10;;;;;;;12.33;97.28;97849.22;4987650;28;20042;-87
2023/03/22 08:10:36;;;;;;;10.15;8.23;;;;;;;12.35;96.84;97852.44;4981979;28;20054;-86
2023/03/22 08:13:03;;;;;;;10.45;8.80;;;;;;;12.21;92.99;97856.22;4992568;28;20034;-87
2023/03/22 08:15:29;;;;;;;8.98;7.45;;;;;;;12.45;94.79;97860.63;4990855;28;20074;-88
2023/03/22 08:17:56;;;;;;;11.52;7.95;;;;;;;12.79;97.53;97863.75;4992715;28;20063;-87
2023/03/22 08:20:26;;;;;;;12.70;8.55;;;;;;;12.95;94.98;97857.88;4991964;28;20038;-87
2023/03/22 08:22:53;;;;;;;9.68;7.63;;;;;;;12.97;90.92;97850.59;4992371;28;20037;-88
2023/03/22 08:25:20;;;;;;;10.23;7.82;;;;;;;13.02;89.46;97852.56;4994098;28;20038;-89
2023/03/22 08:27:50;;;;;;;9.95;7.78;;;;;;;13.06;91.91;97849.25;4991946;28;20081;-89
2023/03/22 08:30:37;;;;;;;10.18;7.75;;;;;;;13.07;88.43;97850.88;4992192;28;20466;-89
2023/03/22 08:33:05;;;;;;;10.38;8.07;;;;;;;12.99;88.52;97853.78;5000716;28;20038;-90
2023/03/22 08:35:35;;;;;;;7.95;7.15;;;;;;;12.73;83.92;97848.84;4979274;28;20108;-90
2023/03/22 08:38:05;;;;;;;10.48;6.93;;;;;;;12.64;83.96;97840.41;4995431;28;20398;-90
2023/03/22 08:40:31;;;;;;;10.98;7.70;;;;;;;12.76;85.29;97851.00;5029714;28;20067;-89
2023/03/22 08:42:58;;;;;;;9.25;6.40;;;;;;;12.90;85.11;97844.59;5008626;28;20105;-88
2023/03/22 08:45:27;;;;;;;8.60;6.78;;;;;;;13.09;83.79;97869.88;4994359;28;20449;-89
2023/03/22 08:47:54;;;;;;;10.68;6.10;;;;;;;13.17;87.41;97844.25;5011497;28;20050;-89
2023/03/22 08:50:20;;;;;;;8.10;6.85;;;;;;;13.20;82.95;97846.47;5009739;28;20050;-89
2023/03/22 08:52:48;;;;;;;7.70;6.07;;;;;;;13.15;81.03;97841.06;4998484;28;20113;-90
2023/03/22 08:55:17;;;;;;;7.22;5.85;;;;;;;13.36;83.50;97838.75;4995922;28;20030;-88
2023/03/22 08:57:45;;;;;;;9.63;6.20;;;;;;;13.63;82.77;97851.59;4979721;28;20042;-88
2023/03/22 09:00:12;;;;;;;7.78;5.47;;;;;;;13.72;83.26;97830.97;4995769;28;20116;-89
2023/03/22 09:02:39;;;;;;;7.32;5.55;;;;;;;13.84;76.06;97850.25;4996089;28;20038;-90
2023/03/22 09:05:08;;;;;;;6.75;5.22;;;;;;;13.72;74.90;97838.88;5012431;28;20038;-90
2023/03/22 09:07:37;;;;;;;9.23;5.18;;;;;;;13.70;75.13;97825.94;5011922;28;20468;-89
2023/03/22 09:10:04;;;;;;;6.43;4.80;;;;;;;13.85;76.24;97826.31;4995433;28;20046;-89
2023/03/22 09:12:30;;;;;;;9.35;4.97;;;;;;;14.06;76.98;97832.06;4996377;28;20085;-89
2023/03/22 09:14:56;;;;;;;5.72;4.45;;;;;;;14.07;72.56;97837.09;4999738;28;20034;-89
2023/03/22 09:17:23;;;;;;;4.32;3.92;;;;;;;13.95;70.28;97807.28;4990402;28;20042;-89
2023/03/22 09:19:49;;;;;;;5.13;4.18;;;;;;;14.11;72.72;97829.56;5003747;28;20112;-88
2023/03/22 09:22:16;;;;;;;4.55;3.92;;;;;;;14.04;72.33;97834.94;5010806;28;20088;-89
2023/03/22 09:24:45;;;;;;;5.32;4.30;;;;;;;13.89;69.57;97840.63;4996354;28;20045;-91
2023/03/22 09:27:14;;;;;;;4.43;3.55;;;;;;;13.91;69.68;97829.84;5012666;28;20034;-90
2023/03/22 09:29:41;;;;;;;4.63;3.83;;;;;;;13.94;69.27;97818.88;4997105;28;20117;-90
2023/03/22 09:32:07;;;;;;;5.90;3.55;;;;;;;14.07;71.06;97813.38;5011602;28;20513;-88
2023/03/22 09:34:34;;;;;;;5.15;3.22;;;;;;;14.58;71.49;97827.72;4994671;28;20073;-90
2023/03/22 09:37:01;;;;;;;7.18;3.63;;;;;;;14.58;69.09;97819.81;4994983;28;20568;-91
2023/03/22 09:39:28;;;;;;;4.57;3.28;;;;;;;14.45;67.08;97820.84;4994662;28;20042;-89
2023/03/22 09:42:03;;;;;;;4.25;3.05;;;;;;;14.31;65.98;97819.44;5009291;28;20031;-90
2023/03/22 09:44:38;;;;;;;3.70;2.80;;;;;;;14.35;65.08;97819.81;4987059;28;20042;-90
2023/03/22 09:47:12;;;;;;;2.80;2.50;;;;;;;14.48;66.19;97803.75;4985911;28;20478;-89
2023/03/22 09:49:44;;;;;;;4.72;2.42;;;;;;;14.93;65.93;97811.00;4994464;28;20031;-88
2023/03/22 09:52:16;;;;;;;2.78;2.30;;;;;;;15.08;65.26;97803.38;4986818;28;20046;-88
2023/03/22 09:57:39;;;;;;;2.45;1.70;;;;;;;15.40;59.73;97818.75;4994591;28;20789;-91
2023/03/22 10:03:07;;;;;;;2.25;2.05;;;;;;;15.66;60.51;97812.13;5023291;28;20627;-90
2023/03/22 10:05:44;;;;;;;3.03;2.15;;;;;;;15.50;59.21;97801.25;5045265;28;20424;-91
2023/03/22 10:08:36;;;;;;;2.22;1.70;;;;;;;15.48;60.17;97768.19;5050277;28;20045;-92
2023/03/22 10:11:25;;;;;;;3.00;2.03;;;;;;;15.70;58.49;97790.22;5048765;28;20092;-92
2023/03/22 10:14:33;;;;;;;3.53;2.13;;;;;;;15.55;58.02;97784.69;5032249;28;20119;-89
2023/03/22 10:17:11;;;;;;;1.70;1.50;;;;;;;15.46;57.63;97772.88;5015072;28;20401;-91
2023/03/22 10:19:56;;;;;;;4.32;2.50;;;;;;;15.50;57.77;97792.50;5042400;28;20033;-88
2023/03/22 10:22:29;;;;;;;4.38;2.10;;;;;;;15.38;58.76;97802.34;5040892;28;20044;-90
2023/03/22 10:25:05;;;;;;;3.92;1.65;;;;;;;15.59;56.82;97775.22;5032624;28;20033;-92
2023/03/22 10:27:33;;;;;;;2.40;2.00;;;;;;;15.72;57.26;97774.94;5046210;28;20091;-92
2023/03/22 10:30:45;;;;;;;3.08;2.28;;;;;;;15.65;58.38;97774.31;5051036;28;20103;-90
2023/03/22 10:33:38;;;;;;;2.50;1.88;;;;;;;15.37;57.05;97748.69;5031969;28;20042;-88
2023/03/22 10:36:16;;;;;;;3.72;2.00;;;;;;;15.74;58.48;97775.50;5040513;28;20025;-88
2023/03/22 10:38:47;;;;;;;1.83;1.67;;;;;;;15.95;59.21;97738.78;5029150;28;20034;-89
2023/03/22 10:41:15;;;;;;;;;;;;;;;16.18;56.04;97762.41;5025644;28;20037;-87
2023/03/22 10:43:46;;;;;;;2.92;1.73;;;;;;;15.87;55.05;97765.66;5037942;28;19917;-87
2023/03/22 10:46:24;;;;;;;2.15;1.65;;;;;;;15.79;55.58;97751.00;5028054;28;20485;-87
2023/03/22 10:48:58;;;;;;;1.73;1.48;;;;;;;15.76;53.84;97762.84;5028719;28;20037;-89
2023/03/22 10:51:33;;;;;;;2.35;1.48;;;;;;;15.99;56.12;97758.41;5022523;28;20022;-89
2023/03/22 10:54:02;;;;;;;3.50;1.88;;;;;;;16.03;54.72;97749.75;5010170;28;20045;-89
2023/03/22 10:56:28;;;;;;;2.72;1.50;;;;;;;16.10;54.35;97751.44;5001693;28;20081;-87
2023/03/22 10:58:57;;;;;;;1.75;1.33;;;;;;;16.01;51.39;97749.22;5026396;28;20500;-89
2023/03/22 11:01:27;;;;;;;3.78;1.83;;;;;;;16.25;51.94;97754.28;5007021;28;20347;-90
2023/03/22 11:04:02;;;;;;;2.55;1.60;;;;;;;16.35;51.32;97748.34;5008602;28;20037;-87
2023/03/22 11:09:03;;;;;;;4.18;1.58;;;;;;;16.96;53.24;97743.78;5071419;27;20697;-86
2023/03/22 11:11:53;;;;;;;2.75;1.65;;;;;;;16.82;49.91;97749.47;5065786;28;20037;-89
2023/03/22 11:14:36;;;;;;;1.75;1.48;;;;;;;16.72;50.94;97736.09;5050891;28;20041;-91
2023/03/22 11:17:13;;;;;;;1.85;1.55;;;;;;;17.09;51.60;97753.97;5029776;28;20029;-88
2023/03/22 11:19:58;;;;;;;3.17;1.70;;;;;;;17.12;50.34;97738.41;5027489;28;20026;-89
2023/03/22 11:22:32;;;;;;;2.65;1.70;;;;;;;17.17;50.99;97740.31;5028398;28;20045;-88
2023/03/22 11:25:12;;;;;;;3.45;1.55;;;;;;;16.82;50.17;97738.88;5066292;28;20029;-89
2023/03/22 11:28:07;;;;;;;3.28;2.05;;;;;;;16.90;50.30;97750.88;5029922;28;20045;-88
2023/03/22 11:30:35;;;;;;;1.38;1.20;;;;;;;17.12;49.19;97742.91;5072426;28;20084;-88
2023/03/22 11:33:24;;;;;;;1.30;1.20;;;;;;;17.28;50.40;97728.75;5034569;28;20547;-89
2023/03/22 11:35:58;;;;;;;2.42;1.60;;;;;;;17.23;50.96;97734.00;5047582;28;20072;-89
2023/03/22 11:38:40;;;;;;;1.63;1.20;;;;;;;17.52;50.57;97737.19;5048414;28;20037;-88
2023/03/22 11:41:19;;;;;;;2.15;1.50;;;;;;;17.69;48.72;97710.50;5038741;28;20391;-91
2023/03/22 11:43:54;;;;;;;1.85;1.70;;;;;;;17.80;47.48;97714.88;5070296;28;20374;-90
2023/03/22 11:46:25;;;;;;;2.72;1.85;;;;;;;17.34;46.74;97703.09;5035653;28;20091;-89
2023/03/22 11:49:00;;;;;;;1.88;1.50;;;;;;;17.75;49.08;97730.75;5053157;28;20069;-90
2023/03/22 11:51:39;;;;;;;2.00;1.58;;;;;;;17.70;48.42;97722.72;5066799;28;20044;-90
2023/03/22 11:54:34;;;;;;;2.20;1.67;;;;;;;17.68;47.45;97703.59;5062488;28;20025;-89
2023/03/22 11:57:15;;;;;;;2.88;1.60;;;;;;;18.05;49.44;97718.72;5027844;28;20026;-88